Coker Creek, TN (37314)

6:21 AM EST on March 05, 2015 (GMT -0500)
Notchey Creek - Low | Change Station
CLOSE
Current Station
Personal Weather Station
Location: Madisonville, TN
Elevation: 1007 ft
Nearby Weather Stations
Active Advisory: Winter Weather Advisory

Elev 1007 ft 35.47 °N, 84.37 °W | Updated 1 minute ago

Rain
Rain
35.2 °F
Feels Like 35 °F
N
1.6
Wind Variable Wind from North
Gusts 10.7 mph

Today
High -- | Low -- °F
--% Chance of Precip.
Yesterday
High -- | Low -- °F
Precip. -- in
7:02 AM 6:36 PM
Full, 100% visible
Pressure 30.03 in
Visibility 10.0 miles
Clouds Overcast 1000 ft
Windchill 35 °F
Dew Point 33 °F
Humidity 92%
Rainfall in
Snow Depth Not available.
UV 0 out of 12
Pollen .60 out of 12
Air Quality Not available.
Flu Activity Not available.
METAR KMMI 051115Z AUTO VRB04KT 10SM OVC010 02/01 A3003 RMK

More Conditions Fewer Conditions

Pressure 30.03 in
Visibility 10.0 miles
Clouds Overcast 1000 ft
Windchill 35 °F
Dew Point 33 °F
Humidity 92%
Rainfall in
Snow Depth Not available.
UV 0 out of 12
Pollen .60 out of 12
Air Quality Not available.
Flu Activity Not available.
METAR KMMI 051115Z AUTO VRB04KT 10SM OVC010 02/01 A3003 RMK

More Conditions Fewer Conditions

10-Day Weather Forecast

Almanac

Astronomy

Mar. 05, 2015 Rise Set
Actual Time
Civil Twilight
Nautical Twilight
Astronomical Twilight
Moon
Length of Visible Light
Length of Day
Tomorrow will be .
, % of the Moon is Illuminated

Today's Extremes

State Highs State Lows

Community

WunderPhotos

Upload Photos

1,802,716 photos uploaded!

WunderBlogs® & News

Nearby

Air Quality

  Air Quality AQ Index Pollutant
Not available.

Snow Depth

Station Depth Elevation

Earthquake Activity

City Distance Mag. Time & Date
Minimum magnitude displayed is 2.5.

Coastal Water Temperatures

Place Temperature

Nearby Weather Stations

Winter Weather Advisory
Statement as of 4:42 AM EST on March 05, 2015

... Winter Weather Advisory remains in effect until 4 PM EST this
afternoon...

* event... rain early then a wintry mix with freezing rain
changing to sleet and snow. Freezing rain accumulations of
less than quarter of an inch. Sleet and snow with
accumulations generally 1 inch or less.

* Timing... the wintry mix will continue until 4 PM EST this
afternoon.

* Impacts... Road conditions will become hazardous. When
traveling... slow down and drive with caution. Give yourself
extra room between you and the vehicle ahead of you. The ice
accumulations may down trees and power lines with localized
power outages possible.

Precautionary/preparedness actions...

A Winter Weather Advisory means that periods of snow... sleet...
and/or freezing rain are expected or occurring... but
accumulations are expected to be light. Driving and walking may
be difficult on untreated roadways and sidewalks. Be prepared for
snow and ice covered roads and limited visibilities. If you must
travel... slow down and allow extra time to reach your
destination.